ADDS METAR Data INFO
IDs: Format: Raw Decoded Include TAF

Data at: 0636 UTC 15 Dec 2017

KVRB 150553Z AUTO 24004KT 10SM CLR 11/08 A3009 RMK AO2 SLP188 T01110083 10178 20111 58002
KVRB 150453Z AUTO 23004KT 10SM CLR 13/08 A3010 RMK AO2 SLP191 T01330083 402280028
KVRB 150353Z AUTO 23005KT 10SM CLR 15/08 A3011 RMK AO2 SLP195 T01500083
KVRB 150253Z AUTO 21005KT 10SM CLR 16/09 A3010 RMK AO2 SLP190 T01560089 51017
KVRB 150153Z AUTO 19007KT 10SM CLR 16/11 A3008 RMK AO2 SLP185 T01610106
KVRB 150053Z 19006KT 10SM CLR 18/11 A3007 RMK AO2 SLP182 T01780111
KVRB 142353Z 16006KT 10SM CLR 18/12 A3004 RMK AO2 SLP173 T01780117 10228 20178 51007
KVRB 142253Z 17006KT 10SM CLR 18/12 A3004 RMK AO2 SLP171 T01830117
KVRB 142153Z 20006KT 10SM CLR 20/12 A3004 RMK AO2 SLP170 T02000117
KVRB 142053Z 19008KT 10SM CLR 22/12 A3002 RMK AO2 SLP165 T02170117 55006
KVRB 141953Z 21008KT 10SM CLR 22/12 A3002 RMK AO2 SLP164 T02220122
KVRB 141853Z 22010KT 10SM CLR 23/11 A3002 RMK AO2 SLP165 T02280111
KVRB 141753Z 21009KT 10SM CLR 22/11 A3004 RMK AO2 SLP171 T02170111 10217 20044 58019
KVRB 141653Z 23007KT 10SM CLR 20/12 A3008 RMK AO2 SLP184 T02000117
KVRB 141553Z 22004KT 10SM CLR 18/11 A3010 RMK AO2 SLP191 T01830111
KVRB 141453Z 21005KT 10SM CLR 17/11 A3010 RMK AO2 SLP190 T01670106 51008
KVRB 141353Z 00000KT 10SM CLR 13/09 A3009 RMK AO2 SLP188 T01280089
KVRB 141253Z 19003KT 10SM CLR 07/06 A3008 RMK AO2 SLP185 T00720061 $
KVRB 141153Z COR 00000KT 10SM CLR 06/04 A3007 RMK AO2 SLP182 T00610044 10061 20028 53006
KVRB 141053Z AUTO 00000KT 10SM CLR 04/03 A3006 RMK AO2 SLP179 T00440033
KVRB 140953Z AUTO 00000KT 10SM CLR 03/03 A3005 RMK AO2 SLP175 T00330028
KVRB 140853Z AUTO 27003KT 10SM CLR 04/03 A3005 RMK AO2 SLP175 T00390028 51001
KVRB 140753Z AUTO 00000KT 10SM CLR 06/03 A3005 RMK AO2 SLP175 T00560033
KVRB 140653Z AUTO 26003KT 10SM CLR 06/04 A3005 RMK AO2 SLP175 T00610044
KVRB 140553Z AUTO 27004KT 10SM CLR 07/04 A3005 RMK AO2 SLP174 T00670039 10106 20050 58010
KVRB 140453Z AUTO 27004KT 10SM CLR 07/03 A3006 RMK AO2 SLP177 T00670033 401830056
KVRB 140353Z AUTO 23004KT 10SM CLR 07/04 A3007 RMK AO2 SLP183 T00720044
KVRB 140253Z AUTO 00000KT 10SM CLR 07/04 A3008 RMK AO2 SLP185 T00720044 50004
KVRB 140153Z 00000KT 10SM CLR 09/04 A3009 RMK AO2 SLP188 T00890044
KVRB 140053Z 29005KT 10SM CLR 08/03 A3009 RMK AO2 SLP187 T00830033
KVRB 132353Z 28005KT 10SM CLR 10/04 A3007 RMK AO2 SLP181 T01000044 10183 20100 53009
KVRB 132253Z 28005KT 10SM CLR 14/02 A3005 RMK AO2 SLP176 T01390022
KVRB 132153Z 29006KT 10SM CLR 16/03 A3005 RMK AO2 SLP173 T01610033
KVRB 132053Z 30009KT 10SM CLR 18/01 A3004 RMK AO2 SLP171 T01780006 56010
KVRB 131953Z 26009KT 10SM CLR 18/02 A3004 RMK AO2 SLP171 T01780017
KVRB 131853Z 29011KT 10SM CLR 18/01 A3005 RMK AO2 SLP173 T01780006